createdAt,value
2023-02-09T00:00:26.140Z,99.70
2023-02-09T00:02:52.981Z,99.70
2023-02-09T00:05:19.857Z,99.80
2023-02-09T00:07:46.704Z,99.60
2023-02-09T00:10:13.676Z,99.60
2023-02-09T00:12:59.141Z,99.60
2023-02-09T00:15:27.408Z,99.60
2023-02-09T00:17:54.338Z,99.70
2023-02-09T00:20:21.370Z,99.80
2023-02-09T00:22:48.198Z,99.80
2023-02-09T00:25:15.132Z,99.80
2023-02-09T00:27:41.999Z,99.90
2023-02-09T00:30:10.091Z,99.90
2023-02-09T00:32:38.303Z,99.90
2023-02-09T00:35:07.799Z,99.80
2023-02-09T00:37:36.453Z,99.90
2023-02-09T00:40:04.429Z,99.90
2023-02-09T00:42:31.276Z,99.90
2023-02-09T00:44:58.108Z,99.90
2023-02-09T00:47:25.050Z,99.90
2023-02-09T00:49:53.333Z,99.90
2023-02-09T00:52:20.249Z,99.90
2023-02-09T00:54:47.115Z,99.90
2023-02-09T00:57:16.631Z,99.90
2023-02-09T00:59:43.535Z,99.90
2023-02-09T01:02:10.451Z,99.90
2023-02-09T01:04:39.072Z,99.90
2023-02-09T01:07:07.744Z,99.90
2023-02-09T01:09:34.857Z,99.90
2023-02-09T01:12:01.911Z,99.90
2023-02-09T01:14:28.825Z,99.90
2023-02-09T01:16:57.580Z,99.90
2023-02-09T01:19:26.815Z,99.90
2023-02-09T01:21:54.879Z,99.90
2023-02-09T01:24:23.222Z,99.90
2023-02-09T01:26:50.176Z,99.90
2023-02-09T01:29:19.055Z,99.90
2023-02-09T01:31:46.461Z,99.90
2023-02-09T01:34:15.443Z,99.90
2023-02-09T01:36:42.893Z,99.90
2023-02-09T01:39:11.578Z,99.90
2023-02-09T01:41:40.232Z,99.90
2023-02-09T01:44:43.760Z,99.90
2023-02-09T01:47:14.111Z,99.90
2023-02-09T01:49:42.661Z,99.90
2023-02-09T01:52:13.192Z,99.90
2023-02-09T01:54:45.461Z,99.90
2023-02-09T01:57:16.871Z,99.90
2023-02-09T01:59:47.978Z,99.90
2023-02-09T02:02:15.123Z,99.90
2023-02-09T02:04:44.117Z,99.90
2023-02-09T02:07:19.099Z,99.90
2023-02-09T02:09:46.431Z,99.90
2023-02-09T02:12:15.435Z,99.90
2023-02-09T02:14:42.251Z,99.90
2023-02-09T02:17:20.033Z,99.90
2023-02-09T02:20:25.371Z,99.90
2023-02-09T02:23:04.912Z,99.90
2023-02-09T02:26:09.147Z,99.90
2023-02-09T02:28:49.007Z,99.90
2023-02-09T02:31:46.753Z,99.90
2023-02-09T02:34:21.615Z,99.90
2023-02-09T02:37:00.946Z,99.90
2023-02-09T02:39:36.858Z,99.90
2023-02-09T02:42:29.172Z,99.90
2023-02-09T02:45:03.639Z,99.90
2023-02-09T02:47:36.963Z,99.90
2023-02-09T02:50:09.120Z,99.90
2023-02-09T02:52:37.189Z,99.90
2023-02-09T02:55:08.850Z,99.90
2023-02-09T02:57:39.102Z,99.90
2023-02-09T03:00:12.712Z,99.90
2023-02-09T03:02:45.058Z,99.90
2023-02-09T03:05:12.309Z,99.90
2023-02-09T03:07:39.264Z,99.90
2023-02-09T03:10:25.395Z,99.90
2023-02-09T03:13:02.449Z,99.90
2023-02-09T03:15:35.480Z,99.90
2023-02-09T03:18:13.940Z,99.90
2023-02-09T03:20:48.056Z,99.90
2023-02-09T03:23:26.278Z,99.90
2023-02-09T03:25:56.310Z,99.90
2023-02-09T03:28:27.270Z,99.90
2023-02-09T03:30:55.042Z,99.90
2023-02-09T03:33:27.249Z,99.90
2023-02-09T03:35:56.832Z,99.90
2023-02-09T03:38:24.075Z,99.90
2023-02-09T03:40:50.935Z,99.90
2023-02-09T03:43:18.197Z,99.90
2023-02-09T03:45:45.035Z,99.90
2023-02-09T03:48:11.935Z,99.90
2023-02-09T03:50:40.167Z,99.90
2023-02-09T03:53:07.050Z,99.90
2023-02-09T03:55:34.289Z,99.90
2023-02-09T03:58:01.143Z,99.90
2023-02-09T04:00:28.113Z,99.90
2023-02-09T04:02:56.263Z,99.90
2023-02-09T04:05:23.203Z,99.90
2023-02-09T04:07:51.533Z,99.90
2023-02-09T04:10:18.905Z,99.90
2023-02-09T04:12:45.769Z,99.90
2023-02-09T04:15:12.657Z,99.90
2023-02-09T04:17:39.574Z,99.90
2023-02-09T04:20:07.132Z,99.90
2023-02-09T04:22:34.033Z,99.90
2023-02-09T04:25:02.207Z,99.90
2023-02-09T04:27:29.086Z,99.90
2023-02-09T04:29:55.898Z,99.90
2023-02-09T04:32:22.808Z,99.90
2023-02-09T04:34:49.661Z,99.90
2023-02-09T04:37:16.505Z,99.90
2023-02-09T04:39:43.483Z,99.90
2023-02-09T04:42:11.671Z,99.90
2023-02-09T04:44:38.487Z,99.90
2023-02-09T04:47:05.334Z,99.90
2023-02-09T04:49:32.329Z,99.90
2023-02-09T04:51:59.147Z,99.90
2023-02-09T04:54:26.089Z,99.90
2023-02-09T04:57:13.036Z,99.90
2023-02-09T04:59:41.599Z,99.90
2023-02-09T05:02:08.463Z,99.90
2023-02-09T05:04:35.374Z,99.90
2023-02-09T05:07:02.374Z,99.90
2023-02-09T05:09:29.399Z,99.90
2023-02-09T05:11:56.270Z,99.90
2023-02-09T05:14:23.103Z,99.90
2023-02-09T05:16:51.460Z,99.90
2023-02-09T05:19:18.502Z,99.90
2023-02-09T05:21:45.400Z,99.90
2023-02-09T05:24:12.296Z,99.90
2023-02-09T05:26:39.164Z,99.90
2023-02-09T05:29:06.006Z,99.90
2023-02-09T05:31:33.005Z,99.90
2023-02-09T05:34:01.416Z,99.90
2023-02-09T05:36:28.294Z,99.90
2023-02-09T05:38:55.172Z,99.90
2023-02-09T05:41:40.492Z,99.90
2023-02-09T05:44:07.823Z,99.90
2023-02-09T05:46:34.775Z,99.90
2023-02-09T05:49:02.977Z,99.90
2023-02-09T05:51:29.849Z,99.90
2023-02-09T05:53:56.664Z,99.90
2023-02-09T05:56:23.848Z,99.90
2023-02-09T05:58:50.704Z,99.90
2023-02-09T06:01:17.538Z,99.90
2023-02-09T06:03:44.389Z,99.90
2023-02-09T06:06:12.605Z,99.90
2023-02-09T06:08:39.488Z,99.90
2023-02-09T06:11:06.516Z,99.90
2023-02-09T06:13:33.763Z,99.90
2023-02-09T06:16:00.703Z,99.90
2023-02-09T06:18:27.622Z,99.90
2023-02-09T06:20:54.545Z,99.90
2023-02-09T06:23:22.735Z,99.90
2023-02-09T06:25:53.061Z,99.90
2023-02-09T06:28:20.484Z,99.90
2023-02-09T06:30:50.283Z,99.90
2023-02-09T06:33:17.897Z,99.90
2023-02-09T06:35:45.369Z,99.90
2023-02-09T06:38:12.411Z,99.90
2023-02-09T06:40:40.603Z,99.90
2023-02-09T06:43:07.513Z,99.90
2023-02-09T06:45:37.690Z,99.90
2023-02-09T06:48:05.029Z,99.90
2023-02-09T06:50:32.129Z,99.90
2023-02-09T06:52:59.552Z,99.90
2023-02-09T06:55:26.472Z,99.90
2023-02-09T06:57:56.274Z,99.90
2023-02-09T07:00:23.834Z,99.90
2023-02-09T07:02:53.125Z,99.90
2023-02-09T07:05:20.686Z,99.90
2023-02-09T07:07:47.711Z,99.90
2023-02-09T07:10:16.300Z,99.90
2023-02-09T07:12:46.067Z,99.90
2023-02-09T07:15:14.898Z,99.90
2023-02-09T07:17:42.286Z,99.90
2023-02-09T07:20:10.808Z,99.90
2023-02-09T07:22:37.677Z,99.90
2023-02-09T07:25:05.262Z,99.90
2023-02-09T07:27:32.206Z,99.90
2023-02-09T07:30:00.936Z,99.90
2023-02-09T07:32:29.601Z,99.90
2023-02-09T07:34:56.491Z,99.90
2023-02-09T07:37:23.320Z,99.90
2023-02-09T07:39:50.209Z,99.90
2023-02-09T07:42:17.215Z,99.90
2023-02-09T07:44:50.617Z,99.90
2023-02-09T07:47:17.493Z,99.90
2023-02-09T07:49:45.654Z,99.90
2023-02-09T07:52:12.466Z,99.90
2023-02-09T07:54:39.317Z,99.90
2023-02-09T07:57:06.168Z,99.90
2023-02-09T07:59:33.024Z,99.90
2023-02-09T08:01:59.932Z,99.90
2023-02-09T08:04:26.864Z,99.90
2023-02-09T08:06:55.353Z,99.90
2023-02-09T08:09:22.217Z,99.90
2023-02-09T08:11:52.812Z,99.90
2023-02-09T08:14:23.121Z,99.90
2023-02-09T08:17:13.781Z,99.90
2023-02-09T08:19:41.774Z,99.50
2023-02-09T08:22:10.204Z,98.80
2023-02-09T08:24:37.264Z,98.60
2023-02-09T08:27:04.518Z,98.30
2023-02-09T08:29:31.895Z,97.50
2023-02-09T08:31:58.841Z,97.30
2023-02-09T08:34:25.813Z,97.20
2023-02-09T08:36:53.284Z,96.70
2023-02-09T08:39:21.506Z,96.50
2023-02-09T08:41:48.403Z,96.20
2023-02-09T08:44:15.297Z,96.00
2023-02-09T08:46:42.244Z,95.50
2023-02-09T08:49:09.217Z,95.40
2023-02-09T08:51:36.316Z,95.50
2023-02-09T08:54:03.288Z,95.30
2023-02-09T08:56:31.615Z,94.40
2023-02-09T08:58:58.474Z,94.40
2023-02-09T09:01:25.391Z,94.20
2023-02-09T09:03:52.443Z,93.80
2023-02-09T09:06:19.654Z,93.50
2023-02-09T09:08:46.521Z,93.40
2023-02-09T09:11:14.647Z,93.00
2023-02-09T09:13:43.301Z,92.80
2023-02-09T09:16:15.100Z,92.40
2023-02-09T09:18:42.013Z,92.20
2023-02-09T09:21:10.805Z,91.50
2023-02-09T09:23:38.866Z,91.70
2023-02-09T09:26:05.926Z,91.10
2023-02-09T09:28:32.871Z,91.20
2023-02-09T09:31:06.726Z,91.20
2023-02-09T09:33:33.643Z,91.40
2023-02-09T09:36:00.859Z,90.60
2023-02-09T09:38:27.844Z,90.80
2023-02-09T09:40:55.172Z,91.00
2023-02-09T09:43:28.459Z,90.60
2023-02-09T09:45:55.468Z,90.50
2023-02-09T09:48:25.673Z,89.40
2023-02-09T09:50:56.185Z,87.70
2023-02-09T09:53:31.856Z,87.80
2023-02-09T09:56:02.767Z,87.40
2023-02-09T09:58:30.645Z,85.70
2023-02-09T10:00:58.544Z,85.70
2023-02-09T10:03:27.277Z,86.40
2023-02-09T10:05:59.759Z,86.50
2023-02-09T10:08:31.941Z,88.10
2023-02-09T10:11:02.950Z,88.10
2023-02-09T10:13:34.943Z,88.20
2023-02-09T10:16:03.075Z,88.30
2023-02-09T10:18:35.857Z,87.80
2023-02-09T10:21:06.418Z,89.10
2023-02-09T10:23:39.694Z,87.80
2023-02-09T10:26:19.043Z,89.10
2023-02-09T10:28:48.362Z,89.30
2023-02-09T10:31:23.352Z,89.40
2023-02-09T10:33:57.140Z,89.30
2023-02-09T10:36:31.010Z,88.70
2023-02-09T10:39:13.794Z,89.30
2023-02-09T10:41:43.763Z,88.80
2023-02-09T10:44:17.898Z,89.40
2023-02-09T10:46:46.966Z,88.30
2023-02-09T10:49:29.544Z,87.70
2023-02-09T10:52:16.247Z,87.80
2023-02-09T10:54:44.653Z,87.20
2023-02-09T10:57:26.640Z,86.60
2023-02-09T10:59:55.580Z,86.10
2023-02-09T11:02:33.536Z,84.90
2023-02-09T11:05:01.874Z,84.40
2023-02-09T11:07:34.373Z,85.00
2023-02-09T11:10:03.596Z,85.00
2023-02-09T11:12:30.679Z,84.10
2023-02-09T11:14:57.688Z,82.90
2023-02-09T11:17:27.118Z,82.90
2023-02-09T11:20:15.789Z,82.50
2023-02-09T11:23:05.481Z,82.00
2023-02-09T11:25:37.587Z,83.20
2023-02-09T11:28:30.653Z,83.30
2023-02-09T11:31:18.184Z,81.80
2023-02-09T11:33:52.984Z,82.30
2023-02-09T11:36:31.936Z,82.70
2023-02-09T11:39:01.814Z,83.20
2023-02-09T11:41:57.225Z,82.80
2023-02-09T11:44:30.164Z,82.60
2023-02-09T11:47:04.441Z,81.60
2023-02-09T11:49:43.063Z,80.90
2023-02-09T11:52:15.397Z,81.10
2023-02-09T11:54:47.520Z,80.30
2023-02-09T11:57:21.989Z,80.70
2023-02-09T11:59:57.027Z,81.80
2023-02-09T12:02:42.525Z,80.10
2023-02-09T12:05:13.612Z,79.00
2023-02-09T12:07:48.694Z,79.20
2023-02-09T12:10:24.231Z,80.70
2023-02-09T12:12:57.813Z,81.70
2023-02-09T12:15:27.633Z,81.20
2023-02-09T12:17:57.553Z,81.00
2023-02-09T12:20:28.353Z,79.10
2023-02-09T12:23:07.669Z,78.80
2023-02-09T12:25:52.176Z,77.50
2023-02-09T12:28:38.358Z,77.00
2023-02-09T12:31:09.750Z,78.80
2023-02-09T12:33:38.592Z,79.20
2023-02-09T12:36:25.184Z,79.50
2023-02-09T12:39:23.715Z,79.50
2023-02-09T12:42:28.162Z,77.40
2023-02-09T12:44:58.124Z,78.70
2023-02-09T12:47:46.366Z,79.40
2023-02-09T12:50:23.561Z,78.90
2023-02-09T12:53:28.076Z,80.00
2023-02-09T12:56:01.900Z,80.30
2023-02-09T12:58:37.573Z,78.80
2023-02-09T13:01:05.431Z,79.10
2023-02-09T13:03:40.550Z,77.00
2023-02-09T13:06:21.282Z,76.90
2023-02-09T13:08:50.658Z,77.50
2023-02-09T13:11:32.637Z,79.00
2023-02-09T13:14:04.283Z,79.90
2023-02-09T13:17:03.540Z,78.80
2023-02-09T13:19:58.633Z,80.50
2023-02-09T13:22:47.348Z,79.00
2023-02-09T13:25:26.400Z,80.20
2023-02-09T13:27:54.663Z,79.50
2023-02-09T13:30:27.516Z,80.20
2023-02-09T13:33:03.146Z,79.60
2023-02-09T13:35:35.262Z,78.20
2023-02-09T13:38:15.512Z,77.60
2023-02-09T13:40:46.390Z,75.30
2023-02-09T13:43:18.449Z,77.30
2023-02-09T13:45:50.072Z,76.20
2023-02-09T13:48:23.638Z,75.30
2023-02-09T13:50:51.130Z,77.10
2023-02-09T13:53:19.685Z,77.00
2023-02-09T13:55:49.220Z,78.40
2023-02-09T13:58:21.229Z,78.40
2023-02-09T14:00:51.185Z,78.30
2023-02-09T14:03:21.241Z,76.90
2023-02-09T14:05:51.763Z,75.70
2023-02-09T14:08:20.047Z,76.50
2023-02-09T14:10:53.507Z,76.80
2023-02-09T14:13:27.374Z,78.20
2023-02-09T14:16:08.002Z,78.90
2023-02-09T14:18:50.198Z,79.70
2023-02-09T14:21:23.861Z,80.00
2023-02-09T14:24:14.437Z,81.40
2023-02-09T14:26:48.284Z,79.30
2023-02-09T14:29:21.413Z,80.10
2023-02-09T14:31:50.612Z,80.90
2023-02-09T14:34:30.348Z,80.80
2023-02-09T14:36:59.659Z,80.20
2023-02-09T14:39:30.804Z,79.00
2023-02-09T14:42:13.954Z,78.60
2023-02-09T14:44:47.431Z,78.60
2023-02-09T14:47:28.864Z,77.60
2023-02-09T14:49:57.076Z,79.10
2023-02-09T14:52:28.774Z,78.80
2023-02-09T14:54:58.113Z,79.70
2023-02-09T14:57:28.051Z,79.80
2023-02-09T14:59:56.494Z,79.80
2023-02-09T15:02:27.020Z,79.00
2023-02-09T15:04:54.529Z,78.60
2023-02-09T15:07:26.575Z,79.30
2023-02-09T15:09:53.518Z,80.20
2023-02-09T15:12:24.195Z,80.50
2023-02-09T15:14:53.467Z,81.10
2023-02-09T15:17:25.516Z,80.90
2023-02-09T15:19:52.604Z,81.10
2023-02-09T15:22:19.654Z,80.90
2023-02-09T15:24:49.724Z,80.80
2023-02-09T15:27:26.395Z,80.60
2023-02-09T15:29:54.528Z,80.50
2023-02-09T15:32:24.340Z,80.90
2023-02-09T15:34:52.309Z,81.40
2023-02-09T15:37:23.194Z,81.60
2023-02-09T15:39:52.115Z,81.50
2023-02-09T15:42:38.421Z,81.80
2023-02-09T15:45:40.824Z,81.60
2023-02-09T15:48:09.897Z,81.40
2023-02-09T15:50:39.789Z,82.30
2023-02-09T15:53:10.644Z,82.80
2023-02-09T15:55:39.612Z,82.80
2023-02-09T15:58:13.535Z,83.00
2023-02-09T16:00:40.670Z,83.50
2023-02-09T16:03:15.201Z,83.70
2023-02-09T16:05:42.204Z,83.40
2023-02-09T16:08:16.236Z,83.80
2023-02-09T16:10:43.127Z,84.20
2023-02-09T16:13:11.932Z,84.60
2023-02-09T16:15:38.732Z,84.40
2023-02-09T16:18:05.639Z,84.60
2023-02-09T16:20:33.986Z,84.90
2023-02-09T16:23:11.758Z,85.20
2023-02-09T16:25:46.965Z,85.60
2023-02-09T16:28:14.589Z,85.90
2023-02-09T16:30:48.709Z,86.20
2023-02-09T16:33:15.598Z,86.50
2023-02-09T16:35:44.397Z,86.60
2023-02-09T16:38:17.714Z,87.10
2023-02-09T16:40:45.417Z,87.50
2023-02-09T16:43:13.721Z,88.10
2023-02-09T16:45:44.723Z,88.70
2023-02-09T16:48:20.462Z,88.90
2023-02-09T16:50:53.699Z,89.00
2023-02-09T16:53:32.588Z,89.40
2023-02-09T16:56:00.818Z,89.50
2023-02-09T16:58:28.019Z,89.60
2023-02-09T17:00:55.014Z,89.90
2023-02-09T17:03:27.669Z,90.00
2023-02-09T17:05:57.374Z,90.10
2023-02-09T17:08:26.640Z,90.30
2023-02-09T17:10:55.637Z,90.30
2023-02-09T17:13:22.967Z,90.40
2023-02-09T17:15:52.147Z,90.50
2023-02-09T17:18:22.383Z,90.70
2023-02-09T17:20:52.166Z,90.80
2023-02-09T17:23:23.552Z,91.00
2023-02-09T17:25:51.548Z,91.10
2023-02-09T17:28:19.363Z,91.30
2023-02-09T17:30:48.019Z,91.50
2023-02-09T17:33:23.659Z,91.70
2023-02-09T17:36:22.261Z,91.90
2023-02-09T17:38:42.435Z,92.10
2023-02-09T17:41:14.926Z,92.50
2023-02-09T17:43:41.987Z,92.80
2023-02-09T17:46:10.544Z,93.20
2023-02-09T17:48:37.464Z,93.40
2023-02-09T17:51:06.992Z,93.50
2023-02-09T17:53:35.443Z,93.60
2023-02-09T17:56:04.081Z,93.70
2023-02-09T17:58:31.385Z,93.70
2023-02-09T18:00:58.416Z,93.80
2023-02-09T18:03:26.034Z,94.00
2023-02-09T18:05:55.644Z,94.00
2023-02-09T18:08:22.782Z,94.00
2023-02-09T18:10:50.158Z,94.00
2023-02-09T18:13:20.493Z,94.10
2023-02-09T18:15:52.275Z,94.10
2023-02-09T18:18:19.140Z,94.10
2023-02-09T18:20:46.076Z,94.20
2023-02-09T18:23:15.291Z,94.30
2023-02-09T18:25:42.281Z,94.40
2023-02-09T18:28:09.358Z,94.50
2023-02-09T18:30:39.124Z,94.50
2023-02-09T18:33:07.117Z,94.70
2023-02-09T18:35:36.514Z,94.80
2023-02-09T18:38:06.198Z,94.80
2023-02-09T18:40:33.244Z,94.90
2023-02-09T18:43:01.130Z,94.90
2023-02-09T18:45:32.889Z,95.00
2023-02-09T18:48:01.647Z,95.10
2023-02-09T18:50:30.493Z,95.10
2023-02-09T18:53:00.022Z,95.30
2023-02-09T18:55:29.590Z,95.30
2023-02-09T18:57:58.004Z,95.40
2023-02-09T19:00:25.350Z,95.40
2023-02-09T19:02:54.160Z,95.50
2023-02-09T19:05:24.302Z,95.70
2023-02-09T19:07:53.288Z,95.80
2023-02-09T19:10:21.303Z,96.00
2023-02-09T19:12:48.534Z,96.10
2023-02-09T19:15:17.680Z,95.90
2023-02-09T19:17:45.240Z,95.90
2023-02-09T19:20:15.641Z,95.90
2023-02-09T19:22:44.041Z,96.00
2023-02-09T19:25:10.841Z,96.00
2023-02-09T19:27:37.823Z,96.00
2023-02-09T19:30:05.574Z,95.90
2023-02-09T19:32:32.398Z,95.90
2023-02-09T19:34:59.277Z,95.90
2023-02-09T19:37:26.219Z,95.90
2023-02-09T19:40:04.304Z,96.00
2023-02-09T19:42:32.119Z,96.30
2023-02-09T19:44:59.518Z,96.40
2023-02-09T19:47:27.296Z,96.50
2023-02-09T19:49:54.834Z,96.60
2023-02-09T19:52:22.160Z,96.70
2023-02-09T19:54:50.071Z,96.60
2023-02-09T19:57:18.936Z,96.80
2023-02-09T19:59:46.044Z,96.90
2023-02-09T20:02:13.565Z,97.00
2023-02-09T20:04:42.624Z,97.10
2023-02-09T20:07:09.896Z,97.10
2023-02-09T20:09:37.456Z,97.20
2023-02-09T20:12:04.627Z,97.10
2023-02-09T20:14:33.633Z,97.20
2023-02-09T20:17:00.904Z,97.30
2023-02-09T20:19:27.929Z,97.30
2023-02-09T20:21:54.990Z,97.30
2023-02-09T20:24:22.446Z,97.30
2023-02-09T20:26:49.261Z,97.40
2023-02-09T20:29:16.720Z,97.40
2023-02-09T20:31:45.334Z,97.50
2023-02-09T20:34:14.723Z,97.50
2023-02-09T20:36:44.618Z,97.60
2023-02-09T20:39:15.819Z,97.60
2023-02-09T20:42:03.309Z,97.70
2023-02-09T20:44:48.697Z,97.60
2023-02-09T20:47:17.664Z,97.60
2023-02-09T20:49:44.738Z,97.60
2023-02-09T20:52:11.842Z,97.60
2023-02-09T20:54:38.791Z,97.60
2023-02-09T20:57:05.650Z,97.70
2023-02-09T20:59:32.567Z,97.70
2023-02-09T21:01:59.656Z,97.90
2023-02-09T21:04:29.975Z,98.00
2023-02-09T21:06:57.712Z,98.10
2023-02-09T21:09:28.258Z,98.20
2023-02-09T21:11:56.172Z,98.20
2023-02-09T21:14:32.315Z,98.30
2023-02-09T21:16:59.534Z,98.50
2023-02-09T21:19:27.726Z,98.90
2023-02-09T21:21:54.667Z,98.60
2023-02-09T21:24:21.862Z,98.70
2023-02-09T21:26:48.767Z,98.70
2023-02-09T21:29:15.685Z,98.90
2023-02-09T21:31:42.617Z,99.00
2023-02-09T21:34:13.284Z,99.10
2023-02-09T21:36:41.552Z,99.20
2023-02-09T21:39:08.559Z,99.40
2023-02-09T21:41:54.235Z,99.30
2023-02-09T21:44:21.232Z,99.50
2023-02-09T21:46:48.574Z,99.60
2023-02-09T21:49:15.720Z,99.60
2023-02-09T21:51:44.588Z,99.70
2023-02-09T21:54:13.513Z,99.80
2023-02-09T21:56:40.487Z,99.80
2023-02-09T21:59:07.406Z,99.90
2023-02-09T22:01:34.501Z,99.90
2023-02-09T22:04:01.838Z,99.90
2023-02-09T22:06:30.314Z,99.90
2023-02-09T22:09:02.401Z,99.90
2023-02-09T22:11:30.110Z,99.90
2023-02-09T22:13:57.033Z,99.90
2023-02-09T22:16:24.527Z,99.90
2023-02-09T22:18:51.710Z,99.90
2023-02-09T22:21:18.973Z,99.90
2023-02-09T22:23:46.073Z,99.90
2023-02-09T22:26:14.924Z,99.90
2023-02-09T22:28:43.178Z,99.90
2023-02-09T22:31:11.738Z,99.90
2023-02-09T22:33:39.104Z,99.90
2023-02-09T22:36:07.646Z,99.90
2023-02-09T22:38:35.909Z,99.90
2023-02-09T22:41:04.728Z,99.90
2023-02-09T22:43:33.285Z,99.90
2023-02-09T22:46:00.269Z,99.90
2023-02-09T22:48:27.174Z,99.90
2023-02-09T22:50:54.044Z,99.90
2023-02-09T22:53:20.998Z,99.90
2023-02-09T22:55:49.443Z,99.90
2023-02-09T22:58:16.415Z,99.90
2023-02-09T23:00:44.598Z,99.90
2023-02-09T23:03:11.638Z,99.90
2023-02-09T23:05:38.575Z,99.90
2023-02-09T23:08:05.562Z,99.90
2023-02-09T23:10:32.406Z,99.90
2023-02-09T23:12:59.224Z,99.90
2023-02-09T23:15:26.145Z,99.90
2023-02-09T23:17:54.318Z,99.90
2023-02-09T23:20:21.540Z,99.90
2023-02-09T23:22:48.955Z,99.90
2023-02-09T23:25:16.019Z,99.90
2023-02-09T23:27:43.168Z,99.90
2023-02-09T23:30:11.099Z,99.90
2023-02-09T23:32:37.936Z,99.90
2023-02-09T23:35:07.321Z,99.90
2023-02-09T23:37:38.269Z,99.90
2023-02-09T23:40:06.068Z,99.90
2023-02-09T23:42:32.909Z,99.90
2023-02-09T23:44:59.765Z,99.90
2023-02-09T23:47:26.662Z,99.90
2023-02-09T23:49:54.078Z,99.90
2023-02-09T23:52:22.268Z,99.90
2023-02-09T23:54:49.195Z,99.90
2023-02-09T23:57:16.208Z,99.90
2023-02-09T23:59:43.098Z,99.90
